Pineville, LA (71360)

10:28 PM CST on February 11, 2016 (GMT -0600)
Rigolette | | Change Station
CLOSE
Current Station
Personal Weather Station
Location: Pineville, LA
Elevation: 98 ft
Nearby Weather Stations

Elev 98 ft 31.38 °N, 92.47 °W | Updated 3 minutes ago

Clear
Clear
60.5 °F
Feels Like 60.5 °F
N
0.0
Wind Variable Wind from WSW
Gusts 4.0 mph

Today
High -- | Low -- °F
--% Chance of Precip.
Yesterday
High -- | Low -- °F
Precip. -- in
Pressure 30.15 in
Visibility 10.0 miles
Clouds Clear
Dew Point 55 °F
Humidity 81%
Rainfall 0.00 in
Snow Depth Not available.
6:54 AM 5:53 PM
Waxing Crescent, 17% visible
METAR KESF 120353Z AUTO 23006KT 10SM CLR 17/12 A3015 RMK AO2 SLP210 T01670122
Pressure 30.15 in
Visibility 10.0 miles
Clouds Clear
Dew Point 55 °F
Humidity 81%
Rainfall 0.00 in
Snow Depth Not available.
6:54 AM 5:53 PM
Waxing Crescent, 17% visible
METAR KESF 120353Z AUTO 23006KT 10SM CLR 17/12 A3015 RMK AO2 SLP210 T01670122

10-Day Weather Forecast

Almanac

Astronomy

Feb. 11, 2016 Rise Set
Actual Time
Civil Twilight
Nautical Twilight
Astronomical Twilight
Moon
Length of Visible Light
Length of Day
Tomorrow will be .
, % of the Moon is Illuminated

Today's Extremes

State Highs State Lows

Community

WunderPhotos

Upload Photos

1,892,266 photos uploaded!

WunderBlog® & News

Nearby

Air Quality

  Air Quality AQ Index Pollutant
Not available.

Snow Depth

Station Depth Elevation

Earthquake Activity

City Distance Mag. Time & Date
Minimum magnitude displayed is 2.5.

Coastal Water Temperatures

Place Temperature

Stations

Nearby Weather Stations

Station Location Temp. Windchill Dew Point Humidity Wind Precip. Elev Updated Type
                   

Watches & Warnings

There are currently no watches in effect.